Lubbock, TX

2:57 PM CDT on August 03, 2015 (GMT -0500)
Lubbock International | | Change Station
CLOSE
Current Station
Airport
Location: Lubbock,
Elevation: 3241 ft
Nearby Weather Stations

Elev 3241 ft 33.67 °N, 101.82 °W | Updated 4 minutes ago

Mostly Cloudy
Mostly Cloudy
91 °F
Feels Like 92 °F
N
12
Wind Variable Wind from SSE
Gusts 16 mph

Today
High -- | Low -- °F
--% Chance of Precip.
Yesterday
High -- | Low -- °F
Precip. -- in
7:00 AM 8:45 PM
Waning Gibbous, 84% visible
Pressure 29.83 in
Visibility 10.0 miles
Clouds Few 6000 ft
Scattered Clouds 16000 ft
Scattered Clouds 26000 ft
Mostly Cloudy 30000 ft
Heat Index 92 °F
Dew Point 63 °F
Humidity 39%
Rainfall 0.00 in
Snow Depth Not available.
UV 6 out of 12
Pollen 3.40 out of 12
Air Quality Not available.
Flu Activity Not available.
METAR KLBB 031953Z 16010G14KT 10SM FEW060 SCT160 SCT260 BKN300 33/17 A3000 RMK AO2 SLP101 CB DSNT NW MOV NE T03280172

More Conditions Fewer Conditions

Pressure 29.83 in
Visibility 10.0 miles
Clouds Few 6000 ft
Scattered Clouds 16000 ft
Scattered Clouds 26000 ft
Mostly Cloudy 30000 ft
Heat Index 92 °F
Dew Point 63 °F
Humidity 39%
Rainfall 0.00 in
Snow Depth Not available.
UV 6 out of 12
Pollen 3.40 out of 12
Air Quality Not available.
Flu Activity Not available.
METAR KLBB 031953Z 16010G14KT 10SM FEW060 SCT160 SCT260 BKN300 33/17 A3000 RMK AO2 SLP101 CB DSNT NW MOV NE T03280172

More Conditions Fewer Conditions

10-Day Weather Forecast

×

Almanac

Astronomy

Aug. 03, 2015 Rise Set
Actual Time
Civil Twilight
Nautical Twilight
Astronomical Twilight
Moon
Length of Visible Light
Length of Day
Tomorrow will be .
, % of the Moon is Illuminated

Today's Extremes

State Highs State Lows

Community

WunderPhotos

Upload Photos

1,843,717 photos uploaded!

WunderBlogs® & News

Nearby

Air Quality

  Air Quality AQ Index Pollutant
Not available.

Snow Depth

Station Depth Elevation

Earthquake Activity

City Distance Mag. Time & Date
Minimum magnitude displayed is 2.5.

Coastal Water Temperatures

Place Temperature

Stations

Nearby Weather Stations

Station Location Temp. Windchill Dew Point Humidity Wind Precip. Elev Updated Type